Time;durP1;ratioP1;P1;durP2;ratioP2;P2;SDS_P1;SDS_P2;PMS_P1;PMS_P2;Temp;Humidity;BMP_temperature;BMP_pressure;BME280_temperature;BME280_humidity;BME280_pressure;Samples;Min_cycle;Max_cycle;Signal;HPM_P1;HPM_P2
2021/11/23 00:00:23;;;;;;;31.02;20.52;;;282.20;2278.40;;;;;;4993735;28;20062;-74
2021/11/23 00:02:49;;;;;;;30.35;18.40;;;282.10;2278.40;;;;;;4994015;28;20437;-73
2021/11/23 00:05:15;;;;;;;26.92;18.25;;;281.90;2278.40;;;;;;4993878;28;20037;-70
2021/11/23 00:07:41;;;;;;;28.55;18.65;;;282.10;2278.40;;;;;;4993810;28;20105;-71
2021/11/23 00:10:08;;;;;;;29.17;19.13;;;282.40;2278.40;;;;;;4976506;28;20137;-70
2021/11/23 00:12:34;;;;;;;27.80;17.33;;;282.30;2278.40;;;;;;4993739;28;20540;-71
2021/11/23 00:15:00;;;;;;;23.40;16.58;;;282.50;2278.40;;;;;;4993607;28;20061;-71
2021/11/23 00:17:26;;;;;;;25.70;18.73;;;282.30;2278.40;;;;;;4994097;28;20482;-70
2021/11/23 00:19:52;;;;;;;24.10;17.02;;;282.30;2278.40;;;;;;4993606;28;20026;-70
2021/11/23 00:22:18;;;;;;;26.50;18.77;;;282.20;2278.40;;;;;;4993697;28;20026;-72
2021/11/23 00:24:44;;;;;;;24.15;16.77;;;282.30;2278.40;;;;;;4992294;28;20022;-71
2021/11/23 00:27:10;;;;;;;21.90;14.50;;;282.00;2278.40;;;;;;4993505;28;20425;-71
2021/11/23 00:29:36;;;;;;;20.48;14.95;;;282.30;2278.40;;;;;;4993333;28;20037;-73
2021/11/23 00:32:02;;;;;;;22.42;14.40;;;282.30;2278.40;;;;;;4993743;28;20031;-73
2021/11/23 00:34:29;;;;;;;22.38;15.05;;;282.00;2278.40;;;;;;4993551;28;20030;-74
2021/11/23 00:36:54;;;;;;;22.48;13.88;;;282.00;2278.40;;;;;;4992164;28;20081;-73
2021/11/23 00:39:21;;;;;;;23.27;14.98;;;281.80;2278.40;;;;;;4993450;28;20031;-72
2021/11/23 00:41:49;;;;;;;17.05;12.25;;;281.90;2278.40;;;;;;4992855;28;20026;-73
2021/11/23 00:44:16;;;;;;;19.25;12.95;;;256.90;2252.80;;;;;;4993103;28;20061;-72
2021/11/23 00:46:42;;;;;;;18.77;12.05;;;256.90;2252.80;;;;;;4993083;28;20129;-72
2021/11/23 00:49:12;;;;;;;18.98;13.40;;;281.70;2278.40;;;;;;4993572;28;20404;-73
2021/11/23 00:51:38;;;;;;;20.17;13.75;;;281.80;2278.40;;;;;;4993349;28;20026;-74
2021/11/23 00:54:05;;;;;;;21.10;13.85;;;281.70;2278.40;;;;;;4993258;28;20034;-74
2021/11/23 00:56:30;;;;;;;18.63;13.88;;;281.90;2278.40;;;;;;4993323;28;20018;-72
2021/11/23 00:58:56;;;;;;;23.15;12.55;;;282.10;2278.40;;;;;;4993108;28;20041;-74
2021/11/23 01:01:22;;;;;;;18.77;13.57;;;282.10;2278.40;;;;;;4993305;28;20548;-72
2021/11/23 01:03:48;;;;;;;17.20;12.48;;;282.00;2278.40;;;;;;4993255;28;20027;-73
2021/11/23 01:06:14;;;;;;;18.65;13.52;;;282.20;2278.40;;;;;;4993325;28;20511;-73
2021/11/23 01:08:39;;;;;;;18.33;12.13;;;282.30;2278.40;;;;;;4993437;28;20028;-73
2021/11/23 01:11:14;;;;;;;18.10;13.52;;;282.40;2278.40;;;;;;4993225;28;20481;-73
2021/11/23 01:13:41;;;;;;;16.73;11.65;;;282.20;2278.40;;;;;;4993183;28;20377;-72
2021/11/23 01:16:07;;;;;;;15.48;11.70;;;282.30;2278.40;;;;;;4993476;28;20545;-73
2021/11/23 01:18:33;;;;;;;17.90;12.57;;;282.10;2278.40;;;;;;4993293;28;20085;-73
2021/11/23 01:21:03;;;;;;;18.33;12.43;;;282.20;2278.40;;;;;;4993343;28;20481;-73
2021/11/23 01:23:30;;;;;;;18.02;12.93;;;282.10;2278.40;;;;;;4993185;28;20077;-74
2021/11/23 01:25:56;;;;;;;17.02;12.48;;;282.10;2278.40;;;;;;4993108;28;20050;-73
2021/11/23 01:28:22;;;;;;;18.10;12.48;;;282.20;2278.40;;;;;;4993092;28;20540;-73
2021/11/23 01:30:49;;;;;;;18.63;12.45;;;282.20;2278.40;;;;;;4993044;28;20576;-72
2021/11/23 01:33:18;;;;;;;19.15;13.27;;;282.10;2278.40;;;;;;4993141;28;20022;-72
2021/11/23 01:35:45;;;;;;;20.95;12.40;;;282.10;2278.40;;;;;;4993118;28;20401;-72
2021/11/23 01:38:12;;;;;;;25.77;18.55;;;282.00;2278.40;;;;;;4993182;28;20432;-73
2021/11/23 01:40:39;;;;;;;18.02;11.95;;;282.00;2278.40;;;;;;4993167;28;20023;-72
2021/11/23 01:43:06;;;;;;;16.90;11.15;;;282.20;2278.40;;;;;;4992871;28;20045;-74
2021/11/23 01:45:36;;;;;;;17.02;10.75;;;282.10;2278.40;;;;;;4992801;28;20035;-74
2021/11/23 01:48:03;;;;;;;17.05;11.45;;;282.20;2278.40;;;;;;4992986;28;20057;-72
2021/11/23 01:50:29;;;;;;;17.42;11.68;;;282.10;2278.40;;;;;;4975479;28;20042;-72
2021/11/23 01:52:57;;;;;;;19.20;13.38;;;282.10;2278.40;;;;;;4993012;28;20481;-72
2021/11/23 01:55:24;;;;;;;16.52;11.80;;;282.20;2278.40;;;;;;4996343;28;20085;-73
2021/11/23 01:57:50;;;;;;;19.08;13.73;;;282.10;2278.40;;;;;;4996321;28;20501;-72
2021/11/23 02:00:17;;;;;;;19.85;12.52;;;282.10;2278.40;;;;;;4996581;28;20029;-73
2021/11/23 02:02:45;;;;;;;19.30;13.25;;;282.10;2278.40;;;;;;4996696;28;20022;-72
2021/11/23 02:05:11;;;;;;;17.10;12.75;;;282.20;2278.40;;;;;;4996498;28;20026;-72
2021/11/23 02:07:37;;;;;;;18.42;12.15;;;282.10;2278.40;;;;;;4996379;28;20109;-72
2021/11/23 02:10:05;;;;;;;15.07;10.75;;;282.00;2278.40;;;;;;4996382;28;20117;-71
2021/11/23 02:12:31;;;;;;;16.40;11.32;;;282.10;2278.40;;;;;;4994894;28;20109;-71
2021/11/23 02:14:56;;;;;;;15.10;10.80;;;282.20;2278.40;;;;;;4996226;28;20128;-73
2021/11/23 02:17:22;;;;;;;14.48;9.95;;;282.20;2278.40;;;;;;4996447;28;20540;-72
2021/11/23 02:19:52;;;;;;;15.43;10.50;;;282.20;2278.40;;;;;;4996083;28;20564;-72
2021/11/23 02:22:19;;;;;;;16.00;10.48;;;282.00;2278.40;;;;;;4996238;28;20097;-71
2021/11/23 02:24:44;;;;;;;14.35;10.27;;;282.00;2278.40;;;;;;4996006;28;20469;-70
2021/11/23 02:27:11;;;;;;;12.23;9.68;;;281.90;2278.40;;;;;;4995854;28;20073;-72
2021/11/23 02:29:37;;;;;;;11.40;8.35;;;281.60;2278.40;;;;;;4995964;28;20080;-73
2021/11/23 02:32:03;;;;;;;12.23;9.55;;;281.70;2278.40;;;;;;4995853;28;20042;-73
2021/11/23 02:34:28;;;;;;;10.77;8.18;;;282.00;2278.40;;;;;;4995827;28;20109;-73
2021/11/23 02:36:55;;;;;;;11.18;8.82;;;281.90;2278.40;;;;;;4995838;28;20473;-72
2021/11/23 02:39:21;;;;;;;13.00;9.15;;;282.20;2278.40;;;;;;4995861;28;20072;-73
2021/11/23 02:41:47;;;;;;;10.50;7.88;;;282.20;2278.40;;;;;;4995629;28;20113;-72
2021/11/23 02:44:12;;;;;;;11.15;8.07;;;282.20;2278.40;;;;;;4995431;28;20034;-72
2021/11/23 02:46:38;;;;;;;11.35;8.75;;;282.20;2278.40;;;;;;4995456;28;20053;-72
2021/11/23 02:49:04;;;;;;;12.85;9.70;;;282.20;2278.40;;;;;;4995533;28;20077;-72
2021/11/23 02:51:33;;;;;;;11.65;8.52;;;282.20;2278.40;;;;;;4995614;28;20034;-73
2021/11/23 02:54:00;;;;;;;12.43;8.88;;;;;;;;;;4995544;28;20026;-76
2021/11/23 02:56:26;;;;;;;13.05;9.55;;;;;;;;;;4995613;28;20031;-75
2021/11/23 02:58:52;;;;;;;14.23;10.50;;;;;;;;;;4995278;28;20061;-74
2021/11/23 03:01:21;;;;;;;13.52;9.90;;;282.10;2278.40;;;;;;4995446;28;20018;-72
2021/11/23 03:03:47;;;;;;;14.15;11.13;;;281.90;2278.40;;;;;;4995489;28;20023;-73
2021/11/23 03:06:16;;;;;;;12.48;10.10;;;282.10;2278.40;;;;;;4994526;28;20030;-72
2021/11/23 03:08:43;;;;;;;13.68;10.13;;;282.10;2278.40;;;;;;4995340;28;20077;-72
2021/11/23 03:11:09;;;;;;;14.88;10.48;;;281.80;2278.40;;;;;;4995176;28;20401;-72
2021/11/23 03:13:35;;;;;;;13.10;9.80;;;;;;;;;;4995562;28;20396;-74
2021/11/23 03:16:01;;;;;;;14.32;9.40;;;282.10;2278.40;;;;;;4995370;28;20034;-72
2021/11/23 03:18:27;;;;;;;17.55;10.50;;;;;;;;;;4995164;28;20022;-73
2021/11/23 03:20:53;;;;;;;12.70;9.25;;;282.00;2278.40;;;;;;4995049;28;20073;-73
2021/11/23 03:23:20;;;;;;;11.05;8.88;;;281.80;2278.40;;;;;;4994981;28;20046;-73
2021/11/23 03:25:46;;;;;;;15.00;9.50;;;281.60;2278.40;;;;;;4994930;28;20401;-73
2021/11/23 03:28:12;;;;;;;13.57;9.73;;;281.90;2278.40;;;;;;4994588;28;20023;-73
2021/11/23 03:30:38;;;;;;;15.82;10.85;;;282.10;2278.40;;;;;;4994741;28;20073;-72
2021/11/23 03:33:05;;;;;;;13.77;10.93;;;;;;;;;;4994641;28;20469;-74
2021/11/23 03:35:33;;;;;;;14.00;10.90;;;;;;;;;;4994755;28;20033;-74
2021/11/23 03:38:00;;;;;;;12.07;9.85;;;282.00;2278.40;;;;;;4994602;28;20022;-73
2021/11/23 03:40:28;;;;;;;14.07;10.43;;;281.80;2278.40;;;;;;4995066;28;20105;-73
2021/11/23 03:42:55;;;;;;;14.23;10.45;;;;;;;;;;4994354;28;20034;-75
2021/11/23 03:45:21;;;;;;;13.50;10.63;;;;;;;;;;4994590;28;20401;-74
2021/11/23 03:47:48;;;;;;;13.80;10.52;;;;;;;;;;4994239;28;20047;-75
2021/11/23 03:50:16;;;;;;;13.95;10.75;;;;;;;;;;4994257;28;20065;-75
2021/11/23 03:52:42;;;;;;;13.15;10.38;;;;;;;;;;4994437;28;20386;-73
2021/11/23 03:55:10;;;;;;;12.75;9.75;;;;;;;;;;4994277;28;20022;-74
2021/11/23 03:57:37;;;;;;;11.75;9.32;;;;;;;;;;4994114;28;20045;-74
2021/11/23 04:00:07;;;;;;;14.55;9.90;;;;;;;;;;4994177;28;20065;-74
2021/11/23 04:02:33;;;;;;;12.07;9.18;;;;;;;;;;4994562;28;20030;-75
2021/11/23 04:04:59;;;;;;;11.15;9.20;;;;;;;;;;4994234;28;20058;-75
2021/11/23 04:07:25;;;;;;;12.32;9.20;;;;;;;;;;4994216;28;20072;-74
2021/11/23 04:09:51;;;;;;;13.30;9.43;;;;;;;;;;4994281;28;20034;-73
2021/11/23 04:12:17;;;;;;;12.02;9.57;;;;;;;;;;4993910;28;20089;-73
2021/11/23 04:14:43;;;;;;;15.73;11.02;;;;;;;;;;4994309;28;20073;-74
2021/11/23 04:17:10;;;;;;;15.20;10.50;;;;;;;;;;4993963;28;20080;-73
2021/11/23 04:19:37;;;;;;;12.30;9.65;;;;;;;;;;4994227;28;20382;-75
2021/11/23 04:22:03;;;;;;;11.68;9.25;;;;;;;;;;4993947;28;20037;-74
2021/11/23 04:24:30;;;;;;;17.77;11.48;;;;;;;;;;4993864;28;20091;-73
2021/11/23 04:26:56;;;;;;;24.05;14.57;;;;;;;;;;4993574;28;20036;-74
2021/11/23 04:29:23;;;;;;;23.70;15.52;;;;;;;;;;4993719;28;20031;-74
2021/11/23 04:31:49;;;;;;;21.73;16.08;;;;;;;;;;4993858;28;20027;-75
2021/11/23 04:34:15;;;;;;;17.23;12.65;;;;;;;;;;4994007;28;20100;-70
2021/11/23 04:36:41;;;;;;;14.43;11.70;;;;;;;;;;4993787;28;20424;-74
2021/11/23 04:39:10;;;;;;;11.10;9.35;;;;;;;;;;4993830;28;20053;-74
2021/11/23 04:41:36;;;;;;;12.45;8.65;;;;;;;;;;4993409;28;20027;-74
2021/11/23 04:44:02;;;;;;;12.32;8.80;;;;;;;;;;4993659;28;20481;-75
2021/11/23 04:46:28;;;;;;;11.82;8.38;;;;;;;;;;4993306;28;20054;-74
2021/11/23 04:48:54;;;;;;;10.38;7.97;;;;;;;;;;4993500;28;20030;-76
2021/11/23 04:51:21;;;;;;;11.82;7.95;;;;;;;;;;4993512;28;20547;-74
2021/11/23 04:53:47;;;;;;;13.90;10.65;;;;;;;;;;4993588;28;20174;-75
2021/11/23 04:56:14;;;;;;;13.68;9.75;;;;;;;;;;4993534;28;20045;-75
2021/11/23 04:58:40;;;;;;;13.70;9.52;;;;;;;;;;4993313;28;20027;-73
2021/11/23 05:01:06;;;;;;;12.40;9.77;;;;;;;;;;4993464;28;20029;-75
2021/11/23 05:03:32;;;;;;;15.45;11.35;;;;;;;;;;4993408;28;20046;-74
2021/11/23 05:05:58;;;;;;;14.52;11.38;;;281.70;2278.40;;;;;;4993309;28;20510;-72
2021/11/23 05:08:24;;;;;;;19.27;13.55;;;281.70;2278.40;;;;;;4993466;28;20101;-73
2021/11/23 05:10:50;;;;;;;14.90;11.65;;;282.10;2278.40;;;;;;4993430;28;20161;-72
2021/11/23 05:13:15;;;;;;;12.13;10.02;;;282.00;2278.40;;;;;;4993124;28;20393;-71
2021/11/23 05:15:41;;;;;;;19.50;12.95;;;282.10;2278.40;;;;;;4993279;28;20066;-72
2021/11/23 05:18:07;;;;;;;20.75;13.38;;;281.80;2278.40;;;;;;4993517;28;20041;-72
2021/11/23 05:20:33;;;;;;;19.38;13.77;;;281.70;2278.40;;;;;;4993270;28;20026;-73
2021/11/23 05:22:58;;;;;;;20.58;14.23;;;282.10;2278.40;;;;;;4993243;28;20057;-72
2021/11/23 05:25:24;;;;;;;17.52;12.90;;;282.10;2278.40;;;;;;4993298;28;20481;-76
2021/11/23 05:27:50;;;;;;;24.20;15.40;;;;;;;;;;4993090;28;20023;-73
2021/11/23 05:30:16;;;;;;;23.00;16.45;;;;;;;;;;4996485;28;20048;-74
2021/11/23 05:32:43;;;;;;;22.67;16.65;;;;;;;;;;4997283;28;20027;-74
2021/11/23 05:35:10;;;;;;;20.23;14.48;;;282.10;2278.40;;;;;;4996791;28;20474;-73
2021/11/23 05:37:36;;;;;;;24.58;17.63;;;281.90;2278.40;;;;;;4997012;28;20018;-73
2021/11/23 05:40:04;;;;;;;24.02;18.25;;;282.00;2278.40;;;;;;4996751;28;20033;-73
2021/11/23 05:42:31;;;;;;;28.73;20.10;;;282.20;2278.40;;;;;;4996484;28;20058;-73
2021/11/23 05:44:57;;;;;;;23.42;15.98;;;282.40;2278.40;;;;;;4996952;28;20381;-73
2021/11/23 05:47:24;;;;;;;23.70;16.33;;;282.10;2278.40;;;;;;4996400;28;20446;-72
2021/11/23 05:49:50;;;;;;;28.40;17.17;;;282.20;2278.40;;;;;;4996560;28;20482;-73
2021/11/23 05:52:17;;;;;;;22.70;16.73;;;282.30;2278.40;;;;;;4996573;28;20507;-71
2021/11/23 05:54:45;;;;;;;22.25;15.57;;;282.20;2278.40;;;;;;4996630;28;20045;-73
2021/11/23 05:57:11;;;;;;;26.45;18.10;;;282.40;2278.40;;;;;;4996430;28;20377;-73
2021/11/23 05:59:36;;;;;;;25.25;19.25;;;282.40;2278.40;;;;;;4996733;28;20430;-72
2021/11/23 06:02:02;;;;;;;29.88;21.88;;;282.50;2278.40;;;;;;4996851;28;20046;-72
2021/11/23 06:04:28;;;;;;;31.65;22.88;;;282.50;2278.40;;;;;;4996680;28;20041;-74
2021/11/23 06:06:54;;;;;;;33.90;23.10;;;282.40;2278.40;;;;;;4996541;28;20027;-74
2021/11/23 06:09:19;;;;;;;33.67;25.98;;;282.50;2278.40;;;;;;4996343;28;20061;-73
2021/11/23 06:11:45;;;;;;;30.05;21.38;;;307.20;2304.00;;;;;;4996464;28;20042;-73
2021/11/23 06:14:11;;;;;;;26.95;19.08;;;307.20;2304.00;;;;;;4996068;28;20109;-72
2021/11/23 06:16:38;;;;;;;20.08;16.40;;;307.20;2304.00;;;;;;4996460;28;20026;-71
2021/11/23 06:19:04;;;;;;;21.33;15.27;;;;;;;;;;4996028;28;20084;-73
2021/11/23 06:21:30;;;;;;;23.23;19.35;;;;;;;;;;4996473;28;20023;-73
2021/11/23 06:23:56;;;;;;;25.33;17.70;;;;;;;;;;4995945;28;20027;-74
2021/11/23 06:26:22;;;;;;;22.00;17.50;;;;;;;;;;4996590;28;20023;-72
2021/11/23 06:28:48;;;;;;;24.38;20.67;;;;;;;;;;4995823;28;20027;-75
2021/11/23 06:31:15;;;;;;;27.05;19.65;;;;;;;;;;4995947;28;20027;-75
2021/11/23 06:33:41;;;;;;;24.33;18.85;;;;;;;;;;4995966;28;20026;-75
2021/11/23 06:36:07;;;;;;;25.40;20.48;;;;;;;;;;4995759;28;20037;-74
2021/11/23 06:38:33;;;;;;;23.60;17.88;;;;;;;;;;4995705;28;20022;-75
2021/11/23 06:41:00;;;;;;;23.23;17.88;;;;;;;;;;4994227;28;20030;-73
2021/11/23 06:43:26;;;;;;;26.50;19.38;;;;;;;;;;4995432;28;20465;-74
2021/11/23 06:45:52;;;;;;;24.48;18.15;;;;;;;;;;4995520;28;20354;-74
2021/11/23 06:48:18;;;;;;;21.17;16.63;;;;;;;;;;4995724;28;20081;-73
2021/11/23 06:50:45;;;;;;;20.88;17.00;;;;;;;;;;4995384;28;20113;-75
2021/11/23 06:53:11;;;;;;;19.35;15.68;;;;;;;;;;4995608;28;20022;-75
2021/11/23 06:55:38;;;;;;;20.10;15.20;;;;;;;;;;4995754;28;20031;-76
2021/11/23 06:58:04;;;;;;;21.48;15.98;;;;;;;;;;4995511;28;20100;-73
2021/11/23 07:00:31;;;;;;;24.08;18.40;;;;;;;;;;4995681;28;20046;-75
2021/11/23 07:02:57;;;;;;;25.52;20.70;;;;;;;;;;4995057;28;20026;-75
2021/11/23 07:05:23;;;;;;;25.63;21.58;;;;;;;;;;4995301;28;20168;-75
2021/11/23 07:07:50;;;;;;;29.40;22.80;;;;;;;;;;4995242;28;20026;-73
2021/11/23 07:10:16;;;;;;;31.73;22.98;;;;;;;;;;4995138;28;20030;-75
2021/11/23 07:12:42;;;;;;;41.13;29.30;;;282.00;2278.40;;;;;;4995330;28;20050;-73
2021/11/23 07:15:09;;;;;;;34.95;26.10;;;;;;;;;;4994918;28;20555;-71
2021/11/23 07:17:34;;;;;;;35.50;24.67;;;282.20;2278.40;;;;;;4995000;28;20504;-72
2021/11/23 07:20:00;;;;;;;38.55;27.05;;;282.20;2278.40;;;;;;4994951;28;20034;-72
2021/11/23 07:22:27;;;;;;;38.55;27.45;;;;;;;;;;4995021;28;20023;-72
2021/11/23 07:24:52;;;;;;;38.05;27.83;;;282.30;2278.40;;;;;;4994932;28;20062;-72
2021/11/23 07:27:19;;;;;;;43.03;30.75;;;;;;;;;;4994908;28;20046;-74
2021/11/23 07:29:45;;;;;;;41.88;30.33;;;;;;;;;;4994443;28;20023;-75
2021/11/23 07:32:12;;;;;;;38.22;28.08;;;;;;;;;;4994803;28;20036;-75
2021/11/23 07:34:38;;;;;;;38.88;26.42;;;;;;;;;;4994662;28;20022;-75
2021/11/23 07:37:05;;;;;;;32.92;24.50;;;;;;;;;;4994572;28;20030;-75
2021/11/23 07:39:31;;;;;;;30.98;23.85;;;;;;;;;;4994978;28;20034;-75
2021/11/23 07:41:57;;;;;;;27.02;20.27;;;;;;;;;;4994607;28;20030;-75
2021/11/23 07:44:23;;;;;;;28.15;20.30;;;;;;;;;;4994342;28;20176;-75
2021/11/23 07:46:49;;;;;;;25.75;19.83;;;;;;;;;;4994201;28;20050;-74
2021/11/23 07:49:15;;;;;;;25.13;17.75;;;;;;;;;;4994357;28;20105;-74
2021/11/23 07:51:41;;;;;;;23.63;17.67;;;;;;;;;;4993895;28;20037;-75
2021/11/23 07:54:08;;;;;;;24.20;18.15;;;;;;;;;;4994412;28;20036;-75
2021/11/23 07:56:34;;;;;;;26.00;19.80;;;;;;;;;;4994287;28;20037;-75
2021/11/23 07:59:00;;;;;;;26.63;19.95;;;;;;;;;;4994221;28;20022;-74
2021/11/23 08:01:26;;;;;;;35.97;27.58;;;;;;;;;;4994196;28;20023;-75
2021/11/23 08:03:52;;;;;;;32.55;24.40;;;;;;;;;;4994130;28;20026;-74
2021/11/23 08:06:18;;;;;;;177.38;90.63;;;;;;;;;;4993960;28;20025;-74
2021/11/23 08:08:45;;;;;;;108.47;61.97;;;;;;;;;;4994128;28;20026;-74
2021/11/23 08:11:11;;;;;;;73.88;53.05;;;;;;;;;;4994087;28;20438;-73
2021/11/23 08:13:38;;;;;;;60.10;50.63;;;;;;;;;;4993906;28;20023;-69
2021/11/23 08:16:04;;;;;;;51.92;37.78;;;;;;;;;;4994061;28;20448;-74
2021/11/23 08:18:34;;;;;;;49.55;33.30;;;308.00;2304.00;;;;;;4994133;28;20560;-72
2021/11/23 08:21:01;;;;;;;50.97;31.85;;;;;;;;;;4993897;28;20105;-73
2021/11/23 08:23:27;;;;;;;53.03;34.95;;;332.80;2329.60;;;;;;4993826;28;20030;-73
2021/11/23 08:25:54;;;;;;;49.72;32.38;;;332.80;2329.60;;;;;;4994086;28;20195;-73
2021/11/23 08:28:22;;;;;;;53.50;34.35;;;332.80;2329.60;;;;;;4993988;28;20385;-73
2021/11/23 08:30:48;;;;;;;37.53;24.52;;;308.10;2304.00;;;;;;4993733;28;20842;-73
2021/11/23 08:33:14;;;;;;;35.65;25.35;;;332.80;2329.60;;;;;;4993566;28;20094;-72
2021/11/23 08:35:40;;;;;;;38.53;27.23;;;333.10;2329.60;;;;;;4993884;28;20478;-73
2021/11/23 08:38:05;;;;;;;31.55;24.05;;;333.30;2329.60;;;;;;4993585;28;20473;-73
2021/11/23 08:40:31;;;;;;;39.75;26.13;;;333.60;2329.60;;;;;;4994113;28;20485;-72
2021/11/23 08:42:58;;;;;;;43.35;34.33;;;333.40;2329.60;;;;;;4993509;28;20023;-72
2021/11/23 08:45:24;;;;;;;42.03;32.13;;;;;;;;;;4993207;28;20030;-72
2021/11/23 08:47:50;;;;;;;36.45;25.48;;;;;;;;;;4993424;28;20062;-76
2021/11/23 08:50:18;;;;;;;33.38;24.98;;;;;;;;;;4993659;28;20050;-76
2021/11/23 08:52:45;;;;;;;38.60;27.80;;;;;;;;;;4993489;28;20027;-75
2021/11/23 08:55:11;;;;;;;40.85;28.45;;;;;;;;;;4993383;28;20014;-75
2021/11/23 08:57:38;;;;;;;36.65;27.83;;;;;;;;;;4993909;28;20529;-75
2021/11/23 09:00:20;;;;;;;48.80;33.67;;;;;;;;;;4993191;28;20424;-75
2021/11/23 09:02:49;;;;;;;41.78;27.10;;;358.50;2329.60;;;;;;4992333;28;20027;-73
2021/11/23 09:05:17;;;;;;;37.38;26.05;;;358.70;2329.60;;;;;;4997353;28;20413;-72
2021/11/23 09:07:43;;;;;;;35.65;24.63;;;358.70;2329.60;;;;;;4997344;28;20031;-72
2021/11/23 09:10:17;;;;;;;31.65;23.67;;;358.70;2329.60;;;;;;4997210;28;20034;-72
2021/11/23 09:12:43;;;;;;;36.88;26.50;;;358.80;2329.60;;;;;;4997221;28;20023;-72
2021/11/23 09:15:09;;;;;;;37.88;26.90;;;;;;;;;;4997075;28;20080;-73
2021/11/23 09:17:35;;;;;;;45.55;36.72;;;;;;;;;;4997140;28;20030;-72
2021/11/23 09:20:01;;;;;;;53.88;42.15;;;;;;;;;;4997116;28;20125;-76
2021/11/23 09:22:28;;;;;;;86.65;65.30;;;;;;;;;;4997076;28;20030;-75
2021/11/23 09:24:54;;;;;;;116.05;76.78;;;;;;;;;;4996973;28;20165;-77
2021/11/23 09:27:21;;;;;;;59.35;47.25;;;;;;;;;;4996937;28;20405;-75
2021/11/23 09:29:47;;;;;;;56.42;44.67;;;;;;;;;;4996681;28;20030;-77
2021/11/23 09:32:13;;;;;;;44.50;34.60;;;;;;;;;;4996813;28;20210;-76
2021/11/23 09:34:39;;;;;;;49.88;35.85;;;;;;;;;;4997046;28;20022;-76
2021/11/23 09:37:06;;;;;;;52.75;37.88;;;;;;;;;;4996822;28;20076;-76
2021/11/23 09:39:31;;;;;;;43.60;30.92;;;358.60;2329.60;;;;;;4996712;28;20019;-74
2021/11/23 09:41:57;;;;;;;53.55;37.63;;;358.60;2329.60;;;;;;4996671;28;20026;-73
2021/11/23 09:44:23;;;;;;;51.05;37.92;;;358.60;2329.60;;;;;;4996735;28;20022;-75
2021/11/23 09:46:49;;;;;;;56.67;40.40;;;358.50;2329.60;;;;;;4996335;28;20057;-73
2021/11/23 09:49:15;;;;;;;52.78;36.53;;;358.50;2329.60;;;;;;4996452;28;20031;-75
2021/11/23 09:51:41;;;;;;;58.55;40.63;;;358.50;2329.60;;;;;;4996774;28;20042;-73
2021/11/23 09:54:08;;;;;;;76.30;64.63;;;;;;;;;;4996429;28;20474;-75
2021/11/23 09:56:36;;;;;;;54.22;40.95;;;333.70;2329.60;;;;;;4996509;28;20030;-73
2021/11/23 09:59:03;;;;;;;44.42;31.23;;;333.70;2329.60;;;;;;4996659;28;20117;-73
2021/11/23 10:01:44;;;;;;;47.90;32.38;;;333.70;2329.60;;;;;;4996405;28;20022;-73
2021/11/23 10:04:10;;;;;;;55.60;35.92;;;333.70;2329.60;;;;;;4996641;28;20030;-73
2021/11/23 10:06:35;;;;;;;54.78;36.33;;;333.70;2329.60;;;;;;4995090;28;20380;-73
2021/11/23 10:09:01;;;;;;;55.78;37.28;;;333.70;2329.60;;;;;;4996340;28;20027;-73
2021/11/23 10:11:31;;;;;;;57.05;38.83;;;333.60;2329.60;;;;;;4996570;28;20069;-73
2021/11/23 10:14:01;;;;;;;60.35;40.05;;;333.70;2329.60;;;;;;4995614;28;20034;-73
2021/11/23 10:16:41;;;;;;;57.60;38.70;;;333.70;2329.60;;;;;;4996154;28;20080;-73
2021/11/23 10:19:09;;;;;;;62.28;39.95;;;333.70;2329.60;;;;;;4996160;28;20037;-73
2021/11/23 10:21:45;;;;;;;59.97;41.80;;;333.70;2329.60;;;;;;4996058;28;20035;-72
2021/11/23 10:24:12;;;;;;;72.95;48.78;;;;;;;;;;4995841;28;20140;-75
2021/11/23 10:26:38;;;;;;;71.75;45.85;;;333.50;2329.60;;;;;;4995913;28;20114;-73
2021/11/23 10:29:06;;;;;;;69.78;45.85;;;333.50;2329.60;;;;;;4995894;28;20105;-73
2021/11/23 10:31:36;;;;;;;59.80;39.58;;;;;;;;;;4996080;28;20057;-75
2021/11/23 10:34:07;;;;;;;63.80;40.83;;;;;;;;;;4995877;28;20397;-74
2021/11/23 10:36:38;;;;;;;79.60;58.65;;;;;;;;;;4995581;28;20027;-74
2021/11/23 10:39:04;;;;;;;71.28;55.78;;;;;;;;;;4994305;28;20540;-72
2021/11/23 10:41:30;;;;;;;71.22;55.25;;;;;;;;;;4995732;28;20034;-75
2021/11/23 10:43:56;;;;;;;69.90;49.13;;;;;;;;;;4995430;28;20507;-74
2021/11/23 10:46:22;;;;;;;69.65;47.88;;;333.40;2329.60;;;;;;4995174;28;20050;-75
2021/11/23 10:48:52;;;;;;;62.08;43.60;;;333.30;2329.60;;;;;;4995525;28;20048;-74
2021/11/23 10:51:20;;;;;;;74.75;58.15;;;333.20;2329.60;;;;;;4995331;28;20073;-73
2021/11/23 10:53:47;;;;;;;56.05;41.38;;;333.30;2329.60;;;;;;4995576;28;20377;-72
2021/11/23 10:56:16;;;;;;;63.25;47.75;;;333.50;2329.60;;;;;;4995381;28;20175;-73
2021/11/23 10:58:43;;;;;;;69.72;49.97;;;333.60;2329.60;;;;;;4995616;28;20023;-74
2021/11/23 11:01:10;;;;;;;71.25;47.22;;;333.60;2329.60;;;;;;4995449;28;20084;-73
2021/11/23 11:03:37;;;;;;;63.17;43.35;;;333.60;2329.60;;;;;;4995301;28;20023;-74
2021/11/23 11:06:04;;;;;;;76.35;55.13;;;333.50;2329.60;;;;;;4995050;28;20061;-74
2021/11/23 11:08:44;;;;;;;71.95;50.67;;;333.60;2329.60;;;;;;4995305;28;20028;-74
2021/11/23 11:11:19;;;;;;;91.95;71.63;;;333.70;2329.60;;;;;;4995107;28;20042;-74
2021/11/23 11:13:51;;;;;;;60.95;44.00;;;333.60;2304.00;;;;;;4995160;28;20023;-74
2021/11/23 11:16:18;;;;;;;67.80;45.83;;;333.60;2304.00;;;;;;4995091;28;20049;-74
2021/11/23 11:19:07;;;;;;;66.65;43.75;;;333.60;2329.60;;;;;;4994793;28;20100;-74
2021/11/23 11:21:48;;;;;;;71.43;49.03;;;333.60;2329.60;;;;;;4994842;28;20026;-72
2021/11/23 11:27:29;;;;;;;70.35;49.13;;;333.60;2329.60;;;;;;4993901;28;20033;-72
2021/11/23 11:30:31;;;;;;;62.28;41.95;;;333.60;2329.60;;;;;;4988150;28;20039;-73
2021/11/23 11:33:08;;;;;;;50.10;35.45;;;333.60;2304.00;;;;;;4993392;28;20478;-73
2021/11/23 11:35:43;;;;;;;49.67;34.20;;;333.60;2252.80;;;;;;4994586;28;20157;-73
2021/11/23 11:38:29;;;;;;;63.35;43.55;;;333.60;2252.80;;;;;;4994829;28;20030;-73
2021/11/23 11:41:07;;;;;;;62.67;42.17;;;333.60;2278.40;;;;;;4987563;28;20057;-72
2021/11/23 11:43:40;;;;;;;53.85;37.30;;;333.50;2278.40;;;;;;4977213;28;20037;-73
2021/11/23 11:46:27;;;;;;;66.88;46.40;;;333.50;2278.40;;;;;;4993916;28;20036;-73
2021/11/23 11:48:53;;;;;;;58.42;42.83;;;333.50;2278.40;;;;;;4994245;28;20105;-73
2021/11/23 11:51:29;;;;;;;56.60;39.90;;;333.60;2252.80;;;;;;4994568;28;20431;-73
2021/11/23 11:53:57;;;;;;;57.15;40.65;;;333.60;2227.20;;;;;;4994261;28;20176;-74
2021/11/23 11:56:35;;;;;;;68.03;49.15;;;333.70;2227.20;;;;;;4994568;28;20034;-73
2021/11/23 11:59:03;;;;;;;57.17;42.40;;;333.70;2329.60;;;;;;4994225;28;20016;-73
2021/11/23 12:01:41;;;;;;;61.00;43.13;;;333.70;2252.80;;;;;;4994013;28;20030;-73
2021/11/23 12:04:16;;;;;;;50.03;35.90;;;333.50;2227.20;;;;;;4994225;28;20023;-73
2021/11/23 12:06:56;;;;;;;52.80;36.70;;;333.40;2278.40;;;;;;4992954;28;20040;-74
2021/11/23 12:09:42;;;;;;;43.58;30.35;;;;;;;;;;4992783;28;20019;-75
2021/11/23 12:12:11;;;;;;;45.80;33.17;;;333.00;2278.40;;;;;;4994018;28;20397;-73
2021/11/23 12:14:52;;;;;;;49.47;35.85;;;333.10;2278.40;;;;;;4993765;28;20072;-72
2021/11/23 12:17:26;;;;;;;50.80;37.05;;;333.20;2252.80;;;;;;4994341;28;20080;-71
2021/11/23 12:20:09;;;;;;;56.35;39.38;;;333.10;2278.40;;;;;;4993954;28;20031;-72
2021/11/23 12:22:43;;;;;;;68.38;47.15;;;333.00;2304.00;;;;;;4993754;28;20412;-72
2021/11/23 12:25:19;;;;;;;50.50;33.58;;;333.00;2304.00;;;;;;4993774;28;20034;-71
2021/11/23 12:27:47;;;;;;;54.33;36.97;;;332.80;2329.60;;;;;;4993960;28;20037;-72
2021/11/23 12:30:20;;;;;;;64.30;44.70;;;332.90;2329.60;;;;;;4993433;28;20034;-72
2021/11/23 12:32:49;;;;;;;65.25;46.80;;;333.00;2304.00;;;;;;4993698;28;20033;-72
2021/11/23 12:35:16;;;;;;;56.97;40.42;;;333.10;2304.00;;;;;;4993533;28;20038;-72
2021/11/23 12:37:45;;;;;;;65.05;43.63;;;333.10;2329.60;;;;;;4993443;28;20049;-74
2021/11/23 12:40:21;;;;;;;81.07;54.17;;;333.10;2329.60;;;;;;4993532;28;20149;-73
2021/11/23 12:42:57;;;;;;;66.78;45.78;;;333.10;2329.60;;;;;;4993146;28;20041;-73
2021/11/23 12:45:37;;;;;;;84.03;59.35;;;333.10;2304.00;;;;;;4993143;28;20488;-69
2021/11/23 12:48:06;;;;;;;70.50;54.42;;;333.00;2329.60;;;;;;4993377;28;20108;-72
2021/11/23 12:50:33;;;;;;;83.57;54.45;;;332.90;2329.60;;;;;;4993342;28;20045;-71